createdAt,value
2019-05-03T00:01:41.961Z,20.37
2019-05-03T00:04:08.790Z,18.67
2019-05-03T00:06:35.647Z,16.27
2019-05-03T00:09:07.611Z,17.10
2019-05-03T00:11:34.522Z,14.33
2019-05-03T00:14:01.713Z,15.90
2019-05-03T00:16:48.582Z,14.27
2019-05-03T00:19:15.356Z,15.63
2019-05-03T00:21:42.224Z,13.63
2019-05-03T00:24:09.096Z,14.60
2019-05-03T00:26:35.810Z,16.07
2019-05-03T00:29:03.516Z,16.00
2019-05-03T00:31:31.900Z,15.83
2019-05-03T00:34:03.262Z,13.97
2019-05-03T00:36:34.688Z,16.73
2019-05-03T00:39:21.948Z,15.90
2019-05-03T00:41:49.739Z,15.93
2019-05-03T00:44:16.562Z,16.80
2019-05-03T00:46:45.225Z,15.37
2019-05-03T00:49:12.064Z,15.07
2019-05-03T00:51:38.722Z,16.73
2019-05-03T00:54:05.850Z,14.93
2019-05-03T00:56:32.637Z,15.87
2019-05-03T00:59:02.042Z,15.60
2019-05-03T01:01:28.358Z,15.00
2019-05-03T01:03:55.500Z,14.70
2019-05-03T01:06:22.416Z,14.53
2019-05-03T01:08:52.064Z,14.23
2019-05-03T01:11:18.810Z,13.70
2019-05-03T01:13:45.758Z,14.97
2019-05-03T01:16:14.376Z,15.87
2019-05-03T01:18:41.773Z,14.87
2019-05-03T01:21:08.822Z,14.83
2019-05-03T01:23:35.605Z,14.27
2019-05-03T01:26:02.589Z,14.70
2019-05-03T01:28:29.966Z,14.17
2019-05-03T01:30:57.103Z,15.07
2019-05-03T01:33:23.810Z,14.87
2019-05-03T01:35:51.880Z,14.33
2019-05-03T01:38:19.566Z,14.47
2019-05-03T01:40:46.566Z,15.07
2019-05-03T01:43:13.262Z,14.10
2019-05-03T01:45:39.944Z,15.10
2019-05-03T01:48:21.588Z,16.70
2019-05-03T01:51:11.801Z,17.30
2019-05-03T01:53:41.719Z,16.27
2019-05-03T01:56:08.478Z,17.03
2019-05-03T01:58:35.177Z,19.03
2019-05-03T02:01:04.234Z,16.47
2019-05-03T02:03:35.806Z,16.97
2019-05-03T02:06:02.816Z,17.80
2019-05-03T02:08:29.520Z,16.63
2019-05-03T02:10:58.262Z,17.27
2019-05-03T02:13:25.184Z,19.67
2019-05-03T02:15:52.901Z,19.33
2019-05-03T02:18:19.796Z,17.60
2019-05-03T02:20:46.678Z,18.03
2019-05-03T02:23:13.352Z,16.23
2019-05-03T02:25:41.852Z,16.73
2019-05-03T02:28:08.800Z,16.97
2019-05-03T02:30:35.470Z,17.13
2019-05-03T02:33:04.079Z,15.07
2019-05-03T02:35:33.178Z,20.67
2019-05-03T02:37:59.288Z,18.03
2019-05-03T02:40:25.975Z,15.93
2019-05-03T02:43:09.752Z,17.33
2019-05-03T02:45:56.933Z,16.23
2019-05-03T02:48:31.372Z,17.37
2019-05-03T02:50:58.125Z,16.10
2019-05-03T02:53:25.903Z,16.30
2019-05-03T02:55:55.919Z,17.33
2019-05-03T02:58:25.296Z,16.40
2019-05-03T03:01:02.339Z,15.57
2019-05-03T03:03:30.346Z,16.03
2019-05-03T03:05:59.872Z,17.17
2019-05-03T03:08:28.425Z,17.07
2019-05-03T03:11:06.265Z,17.50
2019-05-03T03:13:36.808Z,21.60
2019-05-03T03:16:07.095Z,17.87
2019-05-03T03:18:36.715Z,17.47
2019-05-03T03:21:10.167Z,22.03
2019-05-03T03:23:57.393Z,20.47
2019-05-03T03:26:37.396Z,19.30
2019-05-03T03:29:05.617Z,18.17
2019-05-03T03:31:48.710Z,17.03
2019-05-03T03:34:19.425Z,19.53
2019-05-03T03:37:00.729Z,20.03
2019-05-03T03:39:25.690Z,17.43
2019-05-03T03:41:52.526Z,17.50
2019-05-03T03:44:20.206Z,24.27
2019-05-03T03:46:50.608Z,21.43
2019-05-03T03:49:18.995Z,20.87
2019-05-03T03:51:52.136Z,20.87
2019-05-03T03:54:21.263Z,23.40
2019-05-03T03:57:03.253Z,23.90
2019-05-03T03:59:26.705Z,24.33
2019-05-03T04:01:55.122Z,22.73
2019-05-03T04:04:25.722Z,25.30
2019-05-03T04:06:51.965Z,22.97
2019-05-03T04:09:19.147Z,24.20
2019-05-03T04:11:46.521Z,22.67
2019-05-03T04:14:16.141Z,23.17
2019-05-03T04:17:01.299Z,22.80
2019-05-03T04:19:32.485Z,22.87
2019-05-03T04:22:05.866Z,22.57
2019-05-03T04:24:35.191Z,23.03
2019-05-03T04:27:17.966Z,25.37
2019-05-03T04:29:42.207Z,25.90
2019-05-03T04:35:05.411Z,26.67
2019-05-03T04:37:36.696Z,27.57
2019-05-03T04:40:07.571Z,25.60
2019-05-03T04:42:36.595Z,25.50
2019-05-03T04:45:08.868Z,24.97
2019-05-03T04:47:37.394Z,23.43
2019-05-03T04:50:07.241Z,25.63
2019-05-03T04:52:36.257Z,25.43
2019-05-03T04:55:06.851Z,24.73
2019-05-03T04:57:42.151Z,24.53
2019-05-03T05:00:11.771Z,24.87
2019-05-03T05:02:40.164Z,21.30
2019-05-03T05:05:08.580Z,22.70
2019-05-03T05:07:36.765Z,22.00
2019-05-03T05:10:07.481Z,19.17
2019-05-03T05:12:36.585Z,17.87
2019-05-03T05:15:06.542Z,22.17
2019-05-03T05:17:42.186Z,21.60
2019-05-03T05:20:14.407Z,21.67
2019-05-03T05:22:45.436Z,22.93
2019-05-03T05:25:18.616Z,18.00
2019-05-03T05:28:00.806Z,16.97
2019-05-03T05:30:35.308Z,16.53
2019-05-03T05:33:10.540Z,16.67
2019-05-03T05:35:38.834Z,19.80
2019-05-03T05:38:06.182Z,22.73
2019-05-03T05:40:34.760Z,23.20
2019-05-03T05:43:01.386Z,20.43
2019-05-03T05:45:27.925Z,17.90
2019-05-03T05:47:56.494Z,16.20
2019-05-03T05:50:25.446Z,16.87
2019-05-03T05:52:52.284Z,18.40
2019-05-03T05:55:25.254Z,23.47
2019-05-03T05:58:02.869Z,23.17
2019-05-03T06:00:25.805Z,20.83
2019-05-03T06:02:52.525Z,19.43
2019-05-03T06:05:19.240Z,18.07
2019-05-03T06:08:00.178Z,25.50
2019-05-03T06:10:45.131Z,20.97
2019-05-03T06:13:15.223Z,18.40
2019-05-03T06:15:55.939Z,27.13
2019-05-03T06:18:36.568Z,17.13
2019-05-03T06:21:15.435Z,20.93
2019-05-03T06:23:45.128Z,21.70
2019-05-03T06:26:31.000Z,19.10
2019-05-03T06:28:57.619Z,18.50
2019-05-03T06:31:26.502Z,22.70
2019-05-03T06:33:55.237Z,16.83
2019-05-03T06:36:24.373Z,17.17
2019-05-03T06:38:51.257Z,20.20
2019-05-03T06:41:17.903Z,21.80
2019-05-03T06:43:48.739Z,21.47
2019-05-03T06:46:18.156Z,17.53
2019-05-03T06:48:44.390Z,18.90
2019-05-03T06:51:17.218Z,21.80
2019-05-03T06:53:41.935Z,15.07
2019-05-03T06:56:09.921Z,22.77
2019-05-03T06:58:36.718Z,17.77
2019-05-03T07:01:05.413Z,15.07
2019-05-03T07:03:35.400Z,20.77
2019-05-03T07:06:32.611Z,15.77
2019-05-03T07:09:00.959Z,18.03
2019-05-03T07:11:29.406Z,14.63
2019-05-03T07:13:56.146Z,19.20
2019-05-03T07:16:25.147Z,18.60
2019-05-03T07:18:51.811Z,14.40
2019-05-03T07:21:18.508Z,17.07
2019-05-03T07:23:45.235Z,14.70
2019-05-03T07:26:12.069Z,16.30
2019-05-03T07:28:46.923Z,15.93
2019-05-03T07:31:07.270Z,15.63
2019-05-03T07:33:35.165Z,16.83
2019-05-03T07:36:02.711Z,14.33
2019-05-03T07:38:29.328Z,18.43
2019-05-03T07:40:56.175Z,12.73
2019-05-03T07:43:24.511Z,16.50
2019-05-03T07:45:51.496Z,15.03
2019-05-03T07:48:21.192Z,12.30
2019-05-03T07:50:47.845Z,18.03
2019-05-03T07:53:15.095Z,16.30
2019-05-03T07:55:49.559Z,17.10
2019-05-03T07:58:18.180Z,11.13
2019-05-03T08:00:44.902Z,16.00
2019-05-03T08:03:11.583Z,18.37
2019-05-03T08:05:38.447Z,12.97
2019-05-03T08:08:20.491Z,16.77
2019-05-03T08:10:47.817Z,13.07
2019-05-03T08:13:15.549Z,18.50
2019-05-03T08:15:46.559Z,21.40
2019-05-03T08:18:18.189Z,16.60
2019-05-03T08:20:46.670Z,16.17
2019-05-03T08:23:26.374Z,13.57
2019-05-03T08:25:51.019Z,14.70
2019-05-03T08:28:18.623Z,18.20
2019-05-03T08:30:54.271Z,15.57
2019-05-03T08:33:25.291Z,14.20
2019-05-03T08:35:53.014Z,22.07
2019-05-03T08:38:25.825Z,15.77
2019-05-03T08:40:54.770Z,18.13
2019-05-03T08:43:37.149Z,18.27
2019-05-03T08:46:07.428Z,22.37
2019-05-03T08:48:39.499Z,20.67
2019-05-03T08:51:06.852Z,16.20
2019-05-03T08:53:35.854Z,21.40
2019-05-03T08:56:02.588Z,16.53
2019-05-03T08:58:34.641Z,18.20
2019-05-03T09:01:02.286Z,15.67
2019-05-03T09:03:29.023Z,15.57
2019-05-03T09:05:56.444Z,18.87
2019-05-03T09:08:24.922Z,15.63
2019-05-03T09:10:56.277Z,18.43
2019-05-03T09:13:24.965Z,21.13
2019-05-03T09:15:55.272Z,14.33
2019-05-03T09:18:22.894Z,12.30
2019-05-03T09:20:49.589Z,14.40
2019-05-03T09:23:16.385Z,17.10
2019-05-03T09:25:45.672Z,11.40
2019-05-03T09:28:11.983Z,10.83
2019-05-03T09:30:38.806Z,12.23
2019-05-03T09:33:08.831Z,10.70
2019-05-03T09:35:36.074Z,9.57
2019-05-03T09:38:05.705Z,8.40
2019-05-03T09:40:35.040Z,10.77
2019-05-03T09:43:01.567Z,8.47
2019-05-03T09:45:28.433Z,8.60
2019-05-03T09:47:57.739Z,16.20
2019-05-03T09:50:24.683Z,8.70
2019-05-03T09:52:51.700Z,11.57
2019-05-03T09:55:27.431Z,11.37
2019-05-03T09:57:55.516Z,7.80
2019-05-03T10:00:25.384Z,5.83
2019-05-03T10:02:51.983Z,5.80
2019-05-03T10:05:20.324Z,11.37
2019-05-03T10:07:48.371Z,7.83
2019-05-03T10:10:17.891Z,3.97
2019-05-03T10:12:47.509Z,7.77
2019-05-03T10:15:37.589Z,5.33
2019-05-03T10:18:11.139Z,9.17
2019-05-03T10:20:40.635Z,7.33
2019-05-03T10:23:27.764Z,9.20
2019-05-03T10:25:55.198Z,6.80
2019-05-03T10:28:21.979Z,4.53
2019-05-03T10:30:48.688Z,9.33
2019-05-03T10:33:20.164Z,6.33
2019-05-03T10:35:46.876Z,5.27
2019-05-03T10:38:15.135Z,7.67
2019-05-03T10:40:58.459Z,4.80
2019-05-03T10:43:25.322Z,9.07
2019-05-03T10:45:51.970Z,6.30
2019-05-03T10:48:21.596Z,6.77
2019-05-03T10:50:50.926Z,10.30
2019-05-03T10:53:18.878Z,9.87
2019-05-03T10:55:56.308Z,6.97
2019-05-03T10:58:24.945Z,7.77
2019-05-03T11:00:54.206Z,10.30
2019-05-03T11:03:21.795Z,9.23
2019-05-03T11:05:49.011Z,12.57
2019-05-03T11:08:17.680Z,11.90
2019-05-03T11:10:44.608Z,7.50
2019-05-03T11:13:11.359Z,9.57
2019-05-03T11:15:38.159Z,10.70
2019-05-03T11:18:06.127Z,6.93
2019-05-03T11:20:36.696Z,9.50
2019-05-03T11:23:05.861Z,9.33
2019-05-03T11:25:34.429Z,11.17
2019-05-03T11:28:04.854Z,15.60
2019-05-03T11:30:32.782Z,8.50
2019-05-03T11:33:01.318Z,15.80
2019-05-03T11:35:35.842Z,13.50
2019-05-03T11:38:07.520Z,11.93
2019-05-03T11:40:35.473Z,10.73
2019-05-03T11:43:04.623Z,13.80
2019-05-03T11:45:44.942Z,13.20
2019-05-03T11:48:15.580Z,11.43
2019-05-03T11:50:42.543Z,15.17
2019-05-03T11:53:09.238Z,16.93
2019-05-03T11:55:37.904Z,18.43
2019-05-03T11:58:08.689Z,17.83
2019-05-03T12:00:37.250Z,18.07
2019-05-03T12:03:06.055Z,20.70
2019-05-03T12:05:34.604Z,21.03
2019-05-03T12:08:01.370Z,20.17
2019-05-03T12:10:48.190Z,19.23
2019-05-03T12:13:00.492Z,17.43
2019-05-03T12:15:27.203Z,17.70
2019-05-03T12:17:59.398Z,19.47
2019-05-03T12:20:28.671Z,21.20
2019-05-03T12:22:55.289Z,19.50
2019-05-03T12:25:23.507Z,21.77
2019-05-03T12:27:51.171Z,19.43
2019-05-03T12:30:18.086Z,19.97
2019-05-03T12:32:45.984Z,21.23
2019-05-03T12:35:15.156Z,21.37
2019-05-03T12:37:41.288Z,19.73
2019-05-03T12:40:10.036Z,19.60
2019-05-03T12:42:36.696Z,21.30
2019-05-03T12:45:05.458Z,22.50
2019-05-03T12:47:32.120Z,21.53
2019-05-03T12:49:58.660Z,20.70
2019-05-03T12:52:26.777Z,22.77
2019-05-03T12:54:55.184Z,23.07
2019-05-03T12:57:24.823Z,21.40
2019-05-03T13:00:05.605Z,25.03
2019-05-03T13:02:40.494Z,25.17
2019-05-03T13:05:07.640Z,25.63
2019-05-03T13:07:36.280Z,24.43
2019-05-03T13:10:05.363Z,23.13
2019-05-03T13:12:34.795Z,25.17
2019-05-03T13:15:05.779Z,58.17
2019-05-03T13:17:35.835Z,21.20
2019-05-03T13:20:07.261Z,19.87
2019-05-03T13:22:35.050Z,19.73
2019-05-03T13:25:05.096Z,21.30
2019-05-03T13:27:31.815Z,20.47
2019-05-03T13:30:01.118Z,18.57
2019-05-03T13:32:28.439Z,17.90
2019-05-03T13:34:55.409Z,22.67
2019-05-03T13:37:22.019Z,17.20
2019-05-03T13:39:48.668Z,19.77
2019-05-03T13:42:15.285Z,22.93
2019-05-03T13:44:42.041Z,17.47
2019-05-03T13:47:08.744Z,19.53
2019-05-03T13:49:35.541Z,20.43
2019-05-03T13:52:02.408Z,18.13
2019-05-03T13:54:29.341Z,19.77
2019-05-03T13:56:56.135Z,22.10
2019-05-03T13:59:24.631Z,17.37
2019-05-03T14:01:54.403Z,19.13
2019-05-03T14:04:21.045Z,18.87
2019-05-03T14:06:47.650Z,17.53
2019-05-03T14:09:14.692Z,18.50
2019-05-03T14:11:41.470Z,20.50
2019-05-03T14:14:08.189Z,19.47
2019-05-03T14:16:34.814Z,18.63
2019-05-03T14:19:05.159Z,17.83
2019-05-03T14:21:36.418Z,19.13
2019-05-03T14:24:09.876Z,19.40
2019-05-03T14:26:39.598Z,18.60
2019-05-03T14:29:07.906Z,16.17
2019-05-03T14:31:37.629Z,18.63
2019-05-03T14:34:09.161Z,19.90
2019-05-03T14:36:40.290Z,19.33
2019-05-03T14:39:10.004Z,17.07
2019-05-03T14:41:37.101Z,17.27
2019-05-03T14:44:05.003Z,15.70
2019-05-03T14:46:33.253Z,18.80
2019-05-03T14:49:00.378Z,16.33
2019-05-03T14:51:27.010Z,17.40
2019-05-03T14:53:54.274Z,15.10
2019-05-03T14:56:25.381Z,20.27
2019-05-03T14:58:55.927Z,16.70
2019-05-03T15:01:42.587Z,13.30
2019-05-03T15:04:09.302Z,13.47
2019-05-03T15:06:43.243Z,12.37
2019-05-03T15:09:10.248Z,13.30
2019-05-03T15:11:36.895Z,12.53
2019-05-03T15:14:05.507Z,14.57
2019-05-03T15:16:34.279Z,16.27
2019-05-03T15:19:00.780Z,12.13
2019-05-03T15:21:27.413Z,12.63
2019-05-03T15:23:54.881Z,15.20
2019-05-03T15:26:21.657Z,18.73
2019-05-03T15:28:48.280Z,12.80
2019-05-03T15:31:15.016Z,13.23
2019-05-03T15:33:41.851Z,11.23
2019-05-03T15:36:11.559Z,10.40
2019-05-03T15:38:38.301Z,11.00
2019-05-03T15:41:05.555Z,9.97
2019-05-03T15:43:35.221Z,10.17
2019-05-03T15:46:20.836Z,19.07
2019-05-03T15:48:52.166Z,14.70
2019-05-03T15:51:18.934Z,17.90
2019-05-03T15:53:45.903Z,9.50
2019-05-03T15:56:14.517Z,11.13
2019-05-03T15:58:42.163Z,17.97
2019-05-03T16:01:09.787Z,10.40
2019-05-03T16:03:36.439Z,12.93
2019-05-03T16:06:04.925Z,10.10
2019-05-03T16:08:32.233Z,11.73
2019-05-03T16:10:59.123Z,12.43
2019-05-03T16:13:26.217Z,10.53
2019-05-03T16:15:55.032Z,11.33
2019-05-03T16:18:21.536Z,10.77
2019-05-03T16:20:48.207Z,10.47
2019-05-03T16:23:15.386Z,14.00
2019-05-03T16:25:42.413Z,12.80
2019-05-03T16:28:15.248Z,9.80
2019-05-03T16:30:45.458Z,13.13
2019-05-03T16:33:26.217Z,11.10
2019-05-03T16:35:42.087Z,12.87
2019-05-03T16:38:08.835Z,11.10
2019-05-03T16:40:35.749Z,9.27
2019-05-03T16:43:02.885Z,8.90
2019-05-03T16:45:30.002Z,12.07
2019-05-03T16:47:56.611Z,9.47
2019-05-03T16:50:25.132Z,11.10
2019-05-03T16:52:51.789Z,12.53
2019-05-03T16:55:18.454Z,10.40
2019-05-03T16:57:45.197Z,10.60
2019-05-03T17:00:15.331Z,14.40
2019-05-03T17:02:41.986Z,10.97
2019-05-03T17:05:22.571Z,9.93
2019-05-03T17:08:00.367Z,10.57
2019-05-03T17:10:32.179Z,11.57
2019-05-03T17:12:59.042Z,12.57
2019-05-03T17:15:25.744Z,13.23
2019-05-03T17:17:52.388Z,10.10
2019-05-03T17:20:19.016Z,12.47
2019-05-03T17:22:45.825Z,12.90
2019-05-03T17:25:15.011Z,12.53
2019-05-03T17:27:42.003Z,17.53
2019-05-03T17:30:09.477Z,12.07
2019-05-03T17:32:36.400Z,12.70
2019-05-03T17:35:06.230Z,11.37
2019-05-03T17:37:34.691Z,10.70
2019-05-03T17:40:09.826Z,10.63
2019-05-03T17:42:57.222Z,11.67
2019-05-03T17:45:32.174Z,16.73
2019-05-03T17:48:04.485Z,9.93
2019-05-03T17:50:34.812Z,11.67
2019-05-03T17:53:25.384Z,12.17
2019-05-03T17:56:05.667Z,11.63
2019-05-03T17:58:46.446Z,10.43
2019-05-03T18:01:30.054Z,12.47
2019-05-03T18:04:06.695Z,11.27
2019-05-03T18:06:29.115Z,12.90
2019-05-03T18:09:14.867Z,12.43
2019-05-03T18:11:45.093Z,10.27
2019-05-03T18:14:11.848Z,11.20
2019-05-03T18:16:38.575Z,11.43
2019-05-03T18:19:07.904Z,12.63
2019-05-03T18:21:34.710Z,12.73
2019-05-03T18:24:01.602Z,11.20
2019-05-03T18:26:28.233Z,13.17
2019-05-03T18:28:55.434Z,11.33
2019-05-03T18:31:25.037Z,18.20
2019-05-03T18:33:54.712Z,11.67
2019-05-03T18:36:21.557Z,12.13
2019-05-03T18:38:48.303Z,12.40
2019-05-03T18:41:16.026Z,12.10
2019-05-03T18:43:54.487Z,10.77
2019-05-03T18:46:41.645Z,11.67
2019-05-03T18:49:08.649Z,17.77
2019-05-03T18:51:35.499Z,12.93
2019-05-03T18:54:04.796Z,13.70
2019-05-03T18:56:31.330Z,13.90
2019-05-03T18:58:58.168Z,14.23
2019-05-03T19:01:25.308Z,14.30
2019-05-03T19:03:55.461Z,13.60
2019-05-03T19:06:22.490Z,12.57
2019-05-03T19:08:51.324Z,14.53
2019-05-03T19:11:24.590Z,13.27
2019-05-03T19:13:56.740Z,13.77
2019-05-03T19:16:25.836Z,13.43
2019-05-03T19:18:52.745Z,14.47
2019-05-03T19:21:19.391Z,12.03
2019-05-03T19:23:46.096Z,15.67
2019-05-03T19:26:14.431Z,14.63
2019-05-03T19:28:41.371Z,13.90
2019-05-03T19:31:08.318Z,13.53
2019-05-03T19:33:37.228Z,15.37
2019-05-03T19:36:18.216Z,14.03
2019-05-03T19:38:44.981Z,13.20
2019-05-03T19:41:11.711Z,14.87
2019-05-03T19:43:38.555Z,13.43
2019-05-03T19:46:07.364Z,13.77
2019-05-03T19:48:35.587Z,19.63
2019-05-03T19:51:03.084Z,16.70
2019-05-03T19:53:31.916Z,17.70
2019-05-03T19:55:58.633Z,16.63
2019-05-03T19:58:25.448Z,14.17
2019-05-03T20:00:59.986Z,17.03
2019-05-03T20:03:35.235Z,16.67
2019-05-03T20:06:04.911Z,13.13
2019-05-03T20:08:35.209Z,16.33
2019-05-03T20:11:14.633Z,16.30
2019-05-03T20:13:45.121Z,14.67
2019-05-03T20:16:15.100Z,18.27
2019-05-03T20:18:41.850Z,17.13
2019-05-03T20:21:08.582Z,16.80
2019-05-03T20:23:35.346Z,19.13
2019-05-03T20:26:02.371Z,16.70
2019-05-03T20:28:29.697Z,16.93
2019-05-03T20:30:56.942Z,15.83
2019-05-03T20:33:24.597Z,16.07
2019-05-03T20:35:53.791Z,16.27
2019-05-03T20:38:20.219Z,17.70
2019-05-03T20:40:48.038Z,17.73
2019-05-03T20:43:25.834Z,21.80
2019-05-03T20:45:54.898Z,19.20
2019-05-03T20:48:22.240Z,17.73
2019-05-03T20:50:49.080Z,18.03
2019-05-03T20:53:15.716Z,19.17
2019-05-03T20:55:45.097Z,18.50
2019-05-03T20:58:12.036Z,18.73
2019-05-03T21:00:38.844Z,18.50
2019-05-03T21:03:05.368Z,18.33
2019-05-03T21:05:34.628Z,20.13
2019-05-03T21:08:00.501Z,20.17
2019-05-03T21:10:33.540Z,20.53
2019-05-03T21:13:00.280Z,28.90
2019-05-03T21:15:35.483Z,23.97
2019-05-03T21:18:04.936Z,23.17
2019-05-03T21:20:36.278Z,58.60
2019-05-03T21:23:05.488Z,245.00
2019-05-03T21:26:02.181Z,141.00
2019-05-03T21:28:06.942Z,78.73
2019-05-03T21:30:35.240Z,519.80
2019-05-03T21:33:02.078Z,589.10
2019-05-03T21:35:40.809Z,343.20
2019-05-03T21:37:57.526Z,188.67
2019-05-03T21:40:24.477Z,73.17
2019-05-03T21:42:51.105Z,37.80
2019-05-03T21:45:19.638Z,32.10
2019-05-03T21:47:48.242Z,25.77
2019-05-03T21:50:17.296Z,23.43
2019-05-03T21:52:45.671Z,25.70
2019-05-03T21:55:14.361Z,25.83
2019-05-03T21:57:41.631Z,23.87
2019-05-03T22:00:10.340Z,26.03
2019-05-03T22:02:39.232Z,28.37
2019-05-03T22:05:06.720Z,26.73
2019-05-03T22:07:34.968Z,27.47
2019-05-03T22:10:02.448Z,27.40
2019-05-03T22:12:29.351Z,26.77
2019-05-03T22:15:07.683Z,28.27
2019-05-03T22:17:38.932Z,26.13
2019-05-03T22:20:16.918Z,20.10
2019-05-03T22:22:46.606Z,18.07
2019-05-03T22:25:15.173Z,14.67
2019-05-03T22:27:45.554Z,16.07
2019-05-03T22:30:12.624Z,13.50
2019-05-03T22:32:39.375Z,13.80
2019-05-03T22:35:07.250Z,14.63
2019-05-03T22:37:35.429Z,16.17
2019-05-03T22:40:05.352Z,15.87
2019-05-03T22:42:32.218Z,16.50
2019-05-03T22:45:00.025Z,15.50
2019-05-03T22:47:29.121Z,17.43
2019-05-03T22:49:56.273Z,18.50
2019-05-03T22:52:23.395Z,19.40
2019-05-03T22:54:50.695Z,22.07
2019-05-03T22:57:17.817Z,25.57
2019-05-03T22:59:45.039Z,26.20
2019-05-03T23:02:11.721Z,27.70
2019-05-03T23:04:38.922Z,30.80
2019-05-03T23:07:08.545Z,29.13
2019-05-03T23:09:35.384Z,27.90
2019-05-03T23:12:02.041Z,28.10
2019-05-03T23:14:29.108Z,25.10
2019-05-03T23:16:55.714Z,24.53
2019-05-03T23:19:22.396Z,23.90
2019-05-03T23:21:54.979Z,23.03
2019-05-03T23:24:21.848Z,20.63
2019-05-03T23:26:48.638Z,17.30
2019-05-03T23:29:15.896Z,15.87
2019-05-03T23:31:44.718Z,10.73
2019-05-03T23:34:11.246Z,11.03
2019-05-03T23:36:37.863Z,11.27
2019-05-03T23:39:05.134Z,12.07
2019-05-03T23:41:32.030Z,12.17
2019-05-03T23:43:58.881Z,12.53
2019-05-03T23:46:27.552Z,11.63
2019-05-03T23:48:54.179Z,10.90
2019-05-03T23:51:39.355Z,14.13
2019-05-03T23:54:06.492Z,12.50
2019-05-03T23:56:35.077Z,12.93
2019-05-03T23:59:01.932Z,12.33
